createdAt,value
2018-12-27T00:00:35.153Z,21.17
2018-12-27T00:03:01.037Z,21.37
2018-12-27T00:05:26.870Z,16.57
2018-12-27T00:07:52.693Z,15.27
2018-12-27T00:10:18.519Z,19.70
2018-12-27T00:12:44.366Z,16.67
2018-12-27T00:15:10.184Z,15.27
2018-12-27T00:17:36.027Z,19.80
2018-12-27T00:20:02.380Z,21.03
2018-12-27T00:22:28.326Z,18.50
2018-12-27T00:24:54.168Z,18.50
2018-12-27T00:27:20.000Z,21.70
2018-12-27T00:29:45.859Z,19.93
2018-12-27T00:32:11.696Z,19.03
2018-12-27T00:34:37.871Z,21.93
2018-12-27T00:37:03.684Z,22.57
2018-12-27T00:39:29.517Z,26.13
2018-12-27T00:41:55.370Z,24.10
2018-12-27T00:44:21.217Z,25.87
2018-12-27T00:46:47.094Z,24.63
2018-12-27T00:49:12.937Z,23.73
2018-12-27T00:51:38.770Z,26.17
2018-12-27T00:54:04.613Z,24.97
2018-12-27T00:56:30.469Z,24.37
2018-12-27T00:58:56.302Z,28.80
2018-12-27T01:01:22.142Z,22.70
2018-12-27T01:03:47.955Z,25.80
2018-12-27T01:06:13.784Z,24.83
2018-12-27T01:08:39.622Z,29.70
2018-12-27T01:11:05.450Z,28.20
2018-12-27T01:13:31.275Z,28.40
2018-12-27T01:15:57.123Z,29.83
2018-12-27T01:18:22.932Z,35.00
2018-12-27T01:20:48.760Z,27.17
2018-12-27T01:23:14.599Z,28.10
2018-12-27T01:25:40.449Z,32.70
2018-12-27T01:28:06.272Z,24.90
2018-12-27T01:30:32.116Z,28.97
2018-12-27T01:32:57.941Z,34.80
2018-12-27T01:35:23.784Z,31.70
2018-12-27T01:37:49.590Z,28.57
2018-12-27T01:40:15.425Z,30.13
2018-12-27T01:42:41.284Z,30.67
2018-12-27T01:45:07.112Z,32.70
2018-12-27T01:47:32.949Z,36.17
2018-12-27T01:49:58.781Z,33.80
2018-12-27T01:52:24.617Z,29.50
2018-12-27T01:54:50.440Z,34.90
2018-12-27T01:57:16.266Z,32.37
2018-12-27T01:59:42.123Z,30.23
2018-12-27T02:02:07.965Z,35.57
2018-12-27T02:04:33.828Z,37.87
2018-12-27T02:06:59.666Z,33.37
2018-12-27T02:09:25.516Z,31.13
2018-12-27T02:11:51.334Z,25.60
2018-12-27T02:14:17.199Z,29.60
2018-12-27T02:16:43.008Z,27.67
2018-12-27T02:19:08.834Z,30.37
2018-12-27T02:21:34.760Z,29.23
2018-12-27T02:24:00.595Z,31.07
2018-12-27T02:26:26.403Z,25.90
2018-12-27T02:28:52.218Z,26.20
2018-12-27T02:31:18.038Z,26.07
2018-12-27T02:33:43.860Z,30.87
2018-12-27T02:36:09.705Z,29.03
2018-12-27T02:38:35.562Z,31.47
2018-12-27T02:41:01.388Z,27.50
2018-12-27T02:43:27.220Z,33.40
2018-12-27T02:45:53.051Z,29.00
2018-12-27T02:48:18.862Z,30.30
2018-12-27T02:50:44.700Z,31.90
2018-12-27T02:53:10.514Z,29.67
2018-12-27T02:55:36.335Z,26.50
2018-12-27T02:58:02.144Z,34.03
2018-12-27T03:00:28.006Z,35.77
2018-12-27T03:02:53.821Z,32.10
2018-12-27T03:05:19.650Z,30.07
2018-12-27T03:07:45.496Z,29.00
2018-12-27T03:10:11.338Z,33.07
2018-12-27T03:12:37.160Z,35.30
2018-12-27T03:15:03.114Z,34.07
2018-12-27T03:17:28.966Z,34.50
2018-12-27T03:19:54.799Z,31.23
2018-12-27T03:22:20.632Z,34.70
2018-12-27T03:24:46.461Z,32.57
2018-12-27T03:27:12.286Z,34.63
2018-12-27T03:29:38.106Z,34.63
2018-12-27T03:32:03.930Z,31.00
2018-12-27T03:34:29.767Z,41.33
2018-12-27T03:36:55.598Z,38.90
2018-12-27T03:39:21.437Z,40.23
2018-12-27T03:41:47.269Z,36.97
2018-12-27T03:44:13.098Z,41.80
2018-12-27T03:46:38.923Z,37.80
2018-12-27T03:49:04.759Z,34.20
2018-12-27T03:51:30.585Z,37.77
2018-12-27T03:53:56.411Z,40.33
2018-12-27T03:56:22.362Z,41.60
2018-12-27T03:58:48.278Z,44.60
2018-12-27T04:01:14.120Z,41.60
2018-12-27T04:03:39.938Z,42.80
2018-12-27T04:06:05.795Z,38.47
2018-12-27T04:08:31.589Z,43.37
2018-12-27T04:10:57.422Z,41.60
2018-12-27T04:13:23.228Z,43.50
2018-12-27T04:15:49.055Z,41.43
2018-12-27T04:18:14.894Z,59.53
2018-12-27T04:20:40.723Z,68.90
2018-12-27T04:23:06.548Z,47.57
2018-12-27T04:25:32.668Z,47.87
2018-12-27T04:27:58.497Z,40.03
2018-12-27T04:30:24.333Z,43.10
2018-12-27T04:32:50.464Z,47.37
2018-12-27T04:35:16.393Z,46.03
2018-12-27T04:37:42.226Z,36.93
2018-12-27T04:40:08.065Z,40.10
2018-12-27T04:42:33.977Z,40.50
2018-12-27T04:44:59.919Z,42.60
2018-12-27T04:47:25.728Z,40.33
2018-12-27T04:49:51.565Z,46.00
2018-12-27T04:52:17.377Z,41.63
2018-12-27T04:54:43.202Z,36.93
2018-12-27T04:57:09.021Z,43.00
2018-12-27T04:59:34.868Z,39.67
2018-12-27T05:02:00.671Z,45.03
2018-12-27T05:04:26.525Z,37.50
2018-12-27T05:06:52.362Z,35.90
2018-12-27T05:09:18.191Z,41.77
2018-12-27T05:11:44.023Z,38.60
2018-12-27T05:14:09.833Z,39.27
2018-12-27T05:16:35.722Z,34.37
2018-12-27T05:19:01.589Z,40.70
2018-12-27T05:21:27.424Z,43.50
2018-12-27T05:23:53.235Z,44.80
2018-12-27T05:26:19.045Z,40.37
2018-12-27T05:28:45.164Z,42.90
2018-12-27T05:31:10.978Z,45.93
2018-12-27T05:33:36.814Z,42.40
2018-12-27T05:36:02.622Z,45.63
2018-12-27T05:38:28.443Z,49.00
2018-12-27T05:40:54.334Z,48.40
2018-12-27T05:43:20.257Z,43.07
2018-12-27T05:45:46.066Z,47.83
2018-12-27T05:48:11.917Z,44.53
2018-12-27T05:50:37.766Z,40.90
2018-12-27T05:53:03.592Z,42.07
2018-12-27T05:55:34.174Z,42.00
2018-12-27T05:57:57.162Z,39.10
2018-12-27T06:00:22.973Z,32.57
2018-12-27T06:02:48.778Z,40.20
2018-12-27T06:05:14.627Z,36.00
2018-12-27T06:07:40.577Z,40.00
2018-12-27T06:10:06.494Z,42.93
2018-12-27T06:12:32.311Z,37.60
2018-12-27T06:14:58.145Z,47.17
2018-12-27T06:17:23.954Z,41.80
2018-12-27T06:19:49.795Z,39.50
2018-12-27T06:22:15.595Z,39.27
2018-12-27T06:24:41.422Z,38.03
2018-12-27T06:27:07.236Z,37.30
2018-12-27T06:29:33.083Z,39.30
2018-12-27T06:31:58.895Z,35.87
2018-12-27T06:34:24.700Z,40.27
2018-12-27T06:36:50.522Z,43.13
2018-12-27T06:39:16.344Z,44.20
2018-12-27T06:41:42.182Z,44.67
2018-12-27T06:44:07.988Z,43.43
2018-12-27T06:46:33.817Z,47.20
2018-12-27T06:49:00.180Z,48.00
2018-12-27T06:51:26.204Z,43.53
2018-12-27T06:53:52.037Z,44.03
2018-12-27T06:56:17.842Z,48.27
2018-12-27T06:58:43.683Z,42.80
2018-12-27T07:01:09.515Z,45.73
2018-12-27T07:03:35.339Z,49.63
2018-12-27T07:06:01.167Z,45.67
2018-12-27T07:08:27.005Z,42.57
2018-12-27T07:10:52.807Z,34.83
2018-12-27T07:13:18.638Z,39.43
2018-12-27T07:15:44.465Z,36.90
2018-12-27T07:18:10.316Z,36.87
2018-12-27T07:20:36.143Z,37.43
2018-12-27T07:23:01.967Z,45.37
2018-12-27T07:25:27.808Z,38.17
2018-12-27T07:27:53.611Z,39.40
2018-12-27T07:30:19.433Z,37.40
2018-12-27T07:32:45.268Z,38.20
2018-12-27T07:35:11.210Z,43.90
2018-12-27T07:37:37.019Z,38.90
2018-12-27T07:40:04.767Z,49.33
2018-12-27T07:42:30.570Z,48.70
2018-12-27T07:44:56.400Z,46.80
2018-12-27T07:47:22.235Z,43.23
2018-12-27T07:49:48.058Z,44.80
2018-12-27T07:52:13.924Z,42.47
2018-12-27T07:54:39.739Z,42.33
2018-12-27T07:57:05.573Z,43.60
2018-12-27T07:59:31.408Z,42.10
2018-12-27T08:01:57.234Z,47.10
2018-12-27T08:04:23.074Z,43.97
2018-12-27T08:06:48.995Z,45.40
2018-12-27T08:09:14.825Z,41.20
2018-12-27T08:11:40.668Z,40.90
2018-12-27T08:14:06.499Z,41.80
2018-12-27T08:16:32.313Z,45.83
2018-12-27T08:18:58.224Z,39.60
2018-12-27T08:21:24.064Z,39.67
2018-12-27T08:23:49.915Z,42.60
2018-12-27T08:26:15.745Z,39.07
2018-12-27T08:28:41.595Z,47.07
2018-12-27T08:31:07.406Z,43.03
2018-12-27T08:33:33.235Z,43.77
2018-12-27T08:35:59.069Z,51.73
2018-12-27T08:38:26.044Z,44.63
2018-12-27T08:40:51.973Z,45.00
2018-12-27T08:43:17.788Z,49.80
2018-12-27T08:45:43.607Z,53.87
2018-12-27T08:48:09.423Z,51.83
2018-12-27T08:50:35.247Z,54.67
2018-12-27T08:53:01.380Z,49.83
2018-12-27T08:55:27.199Z,48.87
2018-12-27T08:57:53.851Z,55.53
2018-12-27T09:00:19.711Z,58.83
2018-12-27T09:02:45.868Z,60.83
2018-12-27T09:05:18.647Z,55.50
2018-12-27T09:07:39.430Z,53.80
2018-12-27T09:10:05.666Z,50.97
2018-12-27T09:12:31.478Z,62.17
2018-12-27T09:14:57.331Z,68.87
2018-12-27T09:17:23.209Z,56.70
2018-12-27T09:19:48.975Z,55.07
2018-12-27T09:22:14.797Z,58.00
2018-12-27T09:24:40.638Z,64.47
2018-12-27T09:27:06.459Z,55.30
2018-12-27T09:29:32.410Z,56.53
2018-12-27T09:31:58.323Z,55.17
2018-12-27T09:34:24.166Z,64.97
2018-12-27T09:36:50.436Z,57.57
2018-12-27T09:39:16.397Z,53.67
2018-12-27T09:41:42.238Z,51.17
2018-12-27T09:44:08.068Z,57.87
2018-12-27T09:46:33.917Z,58.53
2018-12-27T09:48:59.729Z,59.00
2018-12-27T09:51:25.558Z,54.77
2018-12-27T09:53:51.385Z,50.87
2018-12-27T09:56:17.224Z,49.70
2018-12-27T09:58:43.048Z,53.03
2018-12-27T10:01:08.891Z,54.00
2018-12-27T10:03:34.718Z,59.03
2018-12-27T10:06:00.553Z,53.80
2018-12-27T10:08:26.398Z,56.07
2018-12-27T10:10:52.212Z,61.27
2018-12-27T10:13:18.048Z,53.50
2018-12-27T10:15:43.901Z,54.23
2018-12-27T10:18:09.719Z,66.00
2018-12-27T10:20:35.566Z,63.77
2018-12-27T10:23:01.378Z,65.10
2018-12-27T10:25:27.246Z,63.13
2018-12-27T10:27:53.065Z,56.70
2018-12-27T10:30:18.906Z,64.43
2018-12-27T10:32:44.734Z,60.23
2018-12-27T10:35:10.590Z,57.73
2018-12-27T10:37:36.413Z,58.60
2018-12-27T10:40:05.779Z,54.03
2018-12-27T10:42:31.737Z,61.50
2018-12-27T10:44:57.568Z,60.20
2018-12-27T10:47:23.429Z,62.33
2018-12-27T10:49:49.268Z,64.50
2018-12-27T10:52:15.088Z,63.73
2018-12-27T10:54:40.930Z,50.40
2018-12-27T10:57:06.860Z,59.60
2018-12-27T10:59:32.708Z,53.83
2018-12-27T11:01:58.580Z,59.70
2018-12-27T11:04:24.402Z,64.97
2018-12-27T11:06:50.536Z,54.37
2018-12-27T11:09:16.360Z,62.00
2018-12-27T11:11:42.174Z,63.93
2018-12-27T11:14:07.998Z,59.80
2018-12-27T11:16:33.843Z,55.93
2018-12-27T11:18:59.672Z,53.70
2018-12-27T11:21:25.719Z,59.00
2018-12-27T11:23:51.571Z,54.07
2018-12-27T11:26:17.401Z,53.13
2018-12-27T11:28:43.313Z,49.50
2018-12-27T11:31:09.131Z,55.87
2018-12-27T11:33:34.976Z,44.10
2018-12-27T11:36:00.814Z,55.33
2018-12-27T11:38:26.660Z,53.03
2018-12-27T11:40:52.509Z,59.90
2018-12-27T11:43:18.370Z,53.30
2018-12-27T11:45:44.207Z,55.97
2018-12-27T11:48:10.043Z,57.93
2018-12-27T11:50:35.889Z,57.03
2018-12-27T11:53:01.699Z,69.07
2018-12-27T11:55:27.625Z,55.33
2018-12-27T11:57:53.549Z,54.43
2018-12-27T12:00:19.520Z,53.23
2018-12-27T12:02:45.350Z,46.13
2018-12-27T12:05:11.216Z,45.13
2018-12-27T12:07:37.042Z,41.80
2018-12-27T12:10:05.137Z,39.77
2018-12-27T12:12:31.002Z,50.20
2018-12-27T12:14:56.795Z,43.80
2018-12-27T12:17:22.615Z,42.60
2018-12-27T12:19:48.456Z,39.63
2018-12-27T12:22:14.321Z,36.70
2018-12-27T12:24:40.148Z,35.97
2018-12-27T12:27:05.991Z,36.80
2018-12-27T12:29:31.795Z,36.20
2018-12-27T12:31:57.672Z,35.23
2018-12-27T12:34:23.540Z,33.97
2018-12-27T12:36:49.488Z,30.67
2018-12-27T12:39:15.321Z,31.40
2018-12-27T12:41:41.163Z,35.70
2018-12-27T12:44:07.026Z,37.87
2018-12-27T12:46:36.989Z,36.40
2018-12-27T12:49:03.537Z,36.40
2018-12-27T12:51:29.393Z,33.27
2018-12-27T12:53:55.371Z,34.10
2018-12-27T12:56:21.203Z,32.83
2018-12-27T12:58:47.356Z,34.43
2018-12-27T13:01:13.155Z,39.77
2018-12-27T13:03:39.009Z,38.03
2018-12-27T13:06:04.876Z,37.83
2018-12-27T13:08:30.741Z,31.27
2018-12-27T13:10:56.610Z,37.17
2018-12-27T13:13:22.452Z,32.60
2018-12-27T13:15:48.312Z,34.87
2018-12-27T13:18:14.173Z,26.70
2018-12-27T13:20:40.012Z,31.23
2018-12-27T13:23:05.851Z,31.80
2018-12-27T13:25:31.720Z,30.67
2018-12-27T13:27:57.564Z,31.37
2018-12-27T13:30:23.398Z,27.87
2018-12-27T13:32:49.263Z,25.03
2018-12-27T13:35:15.092Z,38.17
2018-12-27T13:37:40.935Z,28.57
2018-12-27T13:40:06.924Z,31.37
2018-12-27T13:42:32.807Z,30.10
2018-12-27T13:44:58.653Z,35.97
2018-12-27T13:47:24.537Z,27.13
2018-12-27T13:49:50.377Z,28.70
2018-12-27T13:52:16.259Z,31.27
2018-12-27T13:54:42.074Z,34.40
2018-12-27T13:57:07.912Z,32.53
2018-12-27T13:59:33.776Z,29.40
2018-12-27T14:01:59.622Z,30.10
2018-12-27T14:04:25.488Z,31.47
2018-12-27T14:06:51.350Z,30.90
2018-12-27T14:09:17.241Z,32.80
2018-12-27T14:11:43.097Z,27.33
2018-12-27T14:14:08.972Z,30.10
2018-12-27T14:16:34.803Z,24.77
2018-12-27T14:19:00.721Z,28.30
2018-12-27T14:21:26.587Z,29.87
2018-12-27T14:23:52.448Z,26.93
2018-12-27T14:26:18.377Z,28.33
2018-12-27T14:28:44.237Z,26.07
2018-12-27T14:31:10.087Z,25.67
2018-12-27T14:33:35.948Z,28.13
2018-12-27T14:36:02.075Z,29.97
2018-12-27T14:38:27.902Z,31.50
2018-12-27T14:40:53.746Z,28.67
2018-12-27T14:43:19.584Z,28.40
2018-12-27T14:45:46.283Z,33.50
2018-12-27T14:48:12.155Z,29.63
2018-12-27T14:50:38.011Z,33.83
2018-12-27T14:53:03.830Z,32.13
2018-12-27T14:55:29.676Z,29.17
2018-12-27T14:57:55.532Z,33.20
2018-12-27T15:00:21.387Z,45.60
2018-12-27T15:02:47.223Z,45.57
2018-12-27T15:05:13.095Z,35.40
2018-12-27T15:07:38.939Z,37.13
2018-12-27T15:10:06.493Z,34.63
2018-12-27T15:12:32.336Z,29.53
2018-12-27T15:14:58.194Z,31.23
2018-12-27T15:17:24.040Z,30.67
2018-12-27T15:19:49.882Z,27.60
2018-12-27T15:22:15.733Z,26.43
2018-12-27T15:24:41.572Z,32.10
2018-12-27T15:27:07.425Z,34.90
2018-12-27T15:29:33.274Z,34.10
2018-12-27T15:31:59.134Z,33.40
2018-12-27T15:34:25.041Z,37.60
2018-12-27T15:36:54.329Z,50.40
2018-12-27T15:39:18.707Z,39.80
2018-12-27T15:41:44.538Z,35.40
2018-12-27T15:44:10.422Z,42.77
2018-12-27T15:46:36.332Z,38.43
2018-12-27T15:49:02.280Z,44.83
2018-12-27T15:51:28.108Z,39.90
2018-12-27T15:53:53.955Z,36.30
2018-12-27T15:56:19.789Z,44.73
2018-12-27T15:58:45.643Z,41.53
2018-12-27T16:01:11.491Z,44.30
2018-12-27T16:03:37.323Z,43.40
2018-12-27T16:06:03.147Z,43.73
2018-12-27T16:08:28.984Z,45.90
2018-12-27T16:10:54.851Z,39.53
2018-12-27T16:13:20.685Z,39.57
2018-12-27T16:15:46.522Z,50.53
2018-12-27T16:18:12.380Z,52.87
2018-12-27T16:20:38.215Z,52.73
2018-12-27T16:23:04.048Z,53.20
2018-12-27T16:25:29.870Z,57.27
2018-12-27T16:27:55.720Z,54.37
2018-12-27T16:30:21.521Z,62.07
2018-12-27T16:32:47.379Z,76.80
2018-12-27T16:35:13.253Z,67.77
2018-12-27T16:37:39.083Z,67.47
2018-12-27T16:40:06.726Z,66.97
2018-12-27T16:42:32.571Z,63.90
2018-12-27T16:44:58.420Z,44.30
2018-12-27T16:47:24.275Z,39.70
2018-12-27T16:49:50.156Z,41.50
2018-12-27T16:52:15.952Z,41.33
2018-12-27T16:54:41.805Z,40.37
2018-12-27T16:57:07.672Z,41.23
2018-12-27T16:59:33.525Z,37.87
2018-12-27T17:01:59.485Z,37.00
2018-12-27T17:04:25.343Z,35.07
2018-12-27T17:06:51.197Z,39.83
2018-12-27T17:09:17.030Z,42.03
2018-12-27T17:11:42.870Z,46.23
2018-12-27T17:14:08.725Z,50.10
2018-12-27T17:16:34.602Z,42.10
2018-12-27T17:19:00.442Z,41.80
2018-12-27T17:21:26.278Z,39.37
2018-12-27T17:23:52.134Z,43.57
2018-12-27T17:26:17.973Z,47.67
2018-12-27T17:28:43.830Z,39.47
2018-12-27T17:31:09.673Z,50.87
2018-12-27T17:33:35.532Z,36.60
2018-12-27T17:36:01.382Z,39.20
2018-12-27T17:38:27.217Z,38.80
2018-12-27T17:40:53.048Z,31.60
2018-12-27T17:43:18.904Z,37.03
2018-12-27T17:45:44.833Z,38.80
2018-12-27T17:48:13.185Z,44.03
2018-12-27T17:50:39.037Z,40.43
2018-12-27T17:53:04.869Z,42.93
2018-12-27T17:55:30.738Z,42.70
2018-12-27T17:57:56.569Z,40.27
2018-12-27T18:00:22.422Z,48.80
2018-12-27T18:02:48.289Z,40.53
2018-12-27T18:05:14.174Z,38.13
2018-12-27T18:07:40.033Z,34.43
2018-12-27T18:10:06.081Z,33.30
2018-12-27T18:12:31.946Z,31.93
2018-12-27T18:14:58.988Z,32.60
2018-12-27T18:17:24.870Z,33.07
2018-12-27T18:19:50.703Z,34.60
2018-12-27T18:22:16.555Z,39.77
2018-12-27T18:24:42.400Z,35.00
2018-12-27T18:27:08.252Z,32.90
2018-12-27T18:29:34.114Z,35.27
2018-12-27T18:31:59.970Z,39.30
2018-12-27T18:34:26.027Z,32.83
2018-12-27T18:36:51.850Z,31.00
2018-12-27T18:39:17.709Z,44.07
2018-12-27T18:41:43.549Z,40.53
2018-12-27T18:44:09.419Z,37.17
2018-12-27T18:46:35.266Z,30.90
2018-12-27T18:49:01.109Z,34.43
2018-12-27T18:51:26.938Z,44.87
2018-12-27T18:53:52.795Z,34.03
2018-12-27T18:56:18.652Z,54.57
2018-12-27T18:58:44.508Z,71.53
2018-12-27T19:01:10.376Z,43.80
2018-12-27T19:03:36.244Z,66.57
2018-12-27T19:06:02.090Z,43.07
2018-12-27T19:08:27.951Z,40.57
2018-12-27T19:11:31.392Z,48.93
2018-12-27T19:13:57.239Z,44.57
2018-12-27T19:16:23.064Z,43.37
2018-12-27T19:18:48.909Z,38.77
2018-12-27T19:21:15.008Z,43.63
2018-12-27T19:23:40.850Z,41.27
2018-12-27T19:26:06.682Z,31.37
2018-12-27T19:28:32.542Z,40.83
2018-12-27T19:30:58.483Z,38.60
2018-12-27T19:33:24.331Z,42.87
2018-12-27T19:35:50.209Z,38.20
2018-12-27T19:38:16.049Z,36.10
2018-12-27T19:40:41.863Z,39.53
2018-12-27T19:43:07.723Z,37.07
2018-12-27T19:45:33.881Z,38.17
2018-12-27T19:47:59.849Z,42.97
2018-12-27T19:50:25.684Z,34.37
2018-12-27T19:52:51.526Z,35.67
2018-12-27T19:55:17.380Z,38.70
2018-12-27T19:57:43.230Z,32.53
2018-12-27T20:00:09.159Z,37.03
2018-12-27T20:02:35.052Z,38.53
2018-12-27T20:05:00.902Z,47.20
2018-12-27T20:07:26.733Z,38.53
2018-12-27T20:09:52.582Z,49.47
2018-12-27T20:12:18.433Z,49.93
2018-12-27T20:14:44.282Z,42.93
2018-12-27T20:17:10.130Z,41.07
2018-12-27T20:19:35.985Z,36.77
2018-12-27T20:22:01.859Z,36.33
2018-12-27T20:24:27.693Z,37.53
2018-12-27T20:26:53.533Z,35.50
2018-12-27T20:29:19.354Z,32.03
2018-12-27T20:31:45.205Z,36.97
2018-12-27T20:34:11.067Z,33.63
2018-12-27T20:36:36.905Z,36.20
2018-12-27T20:39:04.493Z,33.40
2018-12-27T20:41:30.333Z,32.70
2018-12-27T20:43:56.224Z,29.67
2018-12-27T20:46:22.089Z,37.10
2018-12-27T20:48:47.967Z,37.63
2018-12-27T20:51:13.828Z,35.77
2018-12-27T20:53:39.724Z,35.00
2018-12-27T20:56:05.566Z,36.33
2018-12-27T20:58:31.409Z,36.50
2018-12-27T21:00:57.306Z,42.43
2018-12-27T21:03:23.174Z,36.53
2018-12-27T21:05:49.022Z,40.57
2018-12-27T21:08:14.871Z,37.57
2018-12-27T21:10:40.726Z,39.97
2018-12-27T21:13:06.569Z,37.87
2018-12-27T21:15:32.409Z,42.03
2018-12-27T21:17:58.304Z,34.90
2018-12-27T21:20:24.143Z,36.60
2018-12-27T21:22:49.971Z,33.60
2018-12-27T21:25:15.824Z,40.43
2018-12-27T21:27:41.687Z,33.87
2018-12-27T21:30:07.662Z,38.17
2018-12-27T21:32:33.655Z,41.37
2018-12-27T21:34:59.512Z,38.77
2018-12-27T21:37:25.362Z,42.03
2018-12-27T21:39:51.199Z,39.80
2018-12-27T21:42:17.047Z,42.43
2018-12-27T21:44:42.889Z,40.77
2018-12-27T21:47:08.769Z,37.97
2018-12-27T21:49:34.705Z,37.30
2018-12-27T21:52:00.535Z,41.33
2018-12-27T21:54:26.398Z,39.77
2018-12-27T21:56:52.242Z,31.17
2018-12-27T21:59:18.224Z,30.67
2018-12-27T22:01:44.086Z,34.47
2018-12-27T22:04:09.957Z,36.93
2018-12-27T22:06:35.779Z,37.57
2018-12-27T22:09:01.747Z,33.97
2018-12-27T22:11:27.686Z,36.53
2018-12-27T22:13:53.539Z,50.17
2018-12-27T22:16:19.408Z,46.13
2018-12-27T22:18:45.262Z,45.83
2018-12-27T22:21:11.123Z,37.43
2018-12-27T22:23:37.003Z,39.10
2018-12-27T22:26:02.872Z,38.30
2018-12-27T22:28:28.706Z,38.47
2018-12-27T22:30:54.571Z,35.23
2018-12-27T22:33:20.425Z,43.03
2018-12-27T22:35:46.293Z,40.30
2018-12-27T22:38:12.136Z,38.87
2018-12-27T22:40:38.059Z,35.50
2018-12-27T22:43:03.932Z,39.57
2018-12-27T22:45:29.766Z,39.97
2018-12-27T22:47:55.916Z,35.40
2018-12-27T22:50:21.715Z,36.23
2018-12-27T22:52:50.479Z,35.47
2018-12-27T22:55:16.700Z,36.87
2018-12-27T22:57:42.532Z,38.87
2018-12-27T23:00:16.636Z,47.87
2018-12-27T23:02:42.501Z,43.50
2018-12-27T23:05:08.441Z,44.70
2018-12-27T23:07:34.561Z,41.97
2018-12-27T23:10:00.400Z,35.90
2018-12-27T23:12:26.254Z,39.40
2018-12-27T23:14:52.094Z,45.93
2018-12-27T23:17:17.918Z,57.27
2018-12-27T23:19:43.773Z,38.07
2018-12-27T23:22:09.583Z,38.00
2018-12-27T23:24:35.410Z,34.47
2018-12-27T23:27:01.233Z,32.03
2018-12-27T23:29:27.093Z,28.93
2018-12-27T23:31:52.911Z,30.10
2018-12-27T23:34:18.770Z,30.80
2018-12-27T23:36:44.590Z,33.47
2018-12-27T23:39:10.535Z,30.07
2018-12-27T23:41:36.370Z,31.17
2018-12-27T23:44:02.488Z,30.80
2018-12-27T23:46:28.360Z,30.03
2018-12-27T23:48:54.198Z,27.80
2018-12-27T23:51:20.156Z,29.53
2018-12-27T23:53:45.978Z,30.20
2018-12-27T23:56:11.816Z,26.67
2018-12-27T23:58:37.654Z,30.43
